createdAt,value
2023-11-23T00:03:43.450Z,64.93
2023-11-23T00:08:53.197Z,64.81
2023-11-23T00:14:03.177Z,64.94
2023-11-23T00:19:12.756Z,64.96
2023-11-23T00:24:22.412Z,64.69
2023-11-23T00:29:32.435Z,64.90
2023-11-23T00:34:41.988Z,64.69
2023-11-23T00:39:51.746Z,64.71
2023-11-23T00:45:01.892Z,64.46
2023-11-23T00:50:13.139Z,64.18
2023-11-23T00:55:23.132Z,64.23
2023-11-23T01:00:33.496Z,64.20
2023-11-23T01:05:43.240Z,64.30
2023-11-23T01:10:52.907Z,64.38
2023-11-23T01:16:03.603Z,64.40
2023-11-23T01:21:13.416Z,64.71
2023-11-23T01:26:23.133Z,65.01
2023-11-23T01:31:32.671Z,65.20
2023-11-23T01:36:42.184Z,65.45
2023-11-23T01:41:52.126Z,65.73
2023-11-23T01:47:01.736Z,66.39
2023-11-23T01:52:12.369Z,67.94
2023-11-23T01:57:22.936Z,72.29
2023-11-23T02:02:33.308Z,76.85
2023-11-23T02:07:43.060Z,76.26
2023-11-23T02:12:54.530Z,78.90
2023-11-23T02:18:09.071Z,80.64
2023-11-23T02:23:18.900Z,80.46
2023-11-23T02:28:28.870Z,80.66
2023-11-23T02:33:39.446Z,81.14
2023-11-23T02:38:49.179Z,81.74
2023-11-23T02:43:58.898Z,81.24
2023-11-23T02:49:08.786Z,81.55
2023-11-23T02:54:18.419Z,81.51
2023-11-23T02:59:28.441Z,82.15
2023-11-23T03:04:38.956Z,82.61
2023-11-23T03:09:48.765Z,83.04
2023-11-23T03:14:58.706Z,83.31
2023-11-23T03:20:11.740Z,82.67
2023-11-23T03:25:21.966Z,83.18
2023-11-23T03:30:31.688Z,82.94
2023-11-23T03:35:41.696Z,83.21
2023-11-23T03:40:51.574Z,82.85
2023-11-23T03:46:01.277Z,82.65
2023-11-23T03:51:15.908Z,82.87
2023-11-23T03:56:25.771Z,83.36
2023-11-23T04:01:35.894Z,83.96
2023-11-23T04:06:47.042Z,83.88
2023-11-23T04:11:56.884Z,83.99
2023-11-23T04:17:06.803Z,84.67
2023-11-23T04:22:16.914Z,84.25
2023-11-23T04:27:26.846Z,84.54
2023-11-23T04:32:37.729Z,84.79
2023-11-23T04:37:47.893Z,85.02
2023-11-23T04:42:58.242Z,85.29
2023-11-23T04:48:08.619Z,85.70
2023-11-23T04:53:19.279Z,86.21
2023-11-23T04:58:28.941Z,86.47
2023-11-23T05:03:38.916Z,86.78
2023-11-23T05:08:49.022Z,86.86
2023-11-23T05:14:07.622Z,86.85
2023-11-23T05:19:31.382Z,87.30
2023-11-23T05:24:47.927Z,87.71
2023-11-23T05:29:57.784Z,87.65
2023-11-23T05:35:09.496Z,88.12
2023-11-23T05:40:19.952Z,88.13
2023-11-23T05:45:29.702Z,88.09
2023-11-23T05:50:39.268Z,88.21
2023-11-23T05:55:48.791Z,88.19
2023-11-23T06:01:07.198Z,88.25
2023-11-23T06:06:28.390Z,88.23
2023-11-23T06:11:38.661Z,88.33
2023-11-23T06:16:48.384Z,88.67
2023-11-23T06:21:57.915Z,88.88
2023-11-23T06:27:08.270Z,88.82
2023-11-23T06:32:18.591Z,89.21
2023-11-23T06:37:28.332Z,89.36
2023-11-23T06:42:39.276Z,89.55
2023-11-23T06:47:49.384Z,89.54
2023-11-23T06:52:59.267Z,89.54
2023-11-23T06:58:11.461Z,89.48
2023-11-23T07:03:23.050Z,89.43
2023-11-23T07:08:33.144Z,89.54
2023-11-23T07:13:42.881Z,89.56
2023-11-23T07:18:53.272Z,89.49
2023-11-23T07:24:03.599Z,89.77
2023-11-23T07:29:13.555Z,89.73
2023-11-23T07:34:23.652Z,89.89
2023-11-23T07:39:33.370Z,89.86
2023-11-23T07:44:45.240Z,90.20
2023-11-23T07:49:56.991Z,90.24
2023-11-23T07:55:07.455Z,90.34
2023-11-23T08:00:21.411Z,90.60
2023-11-23T08:05:31.647Z,90.72
2023-11-23T08:10:41.382Z,90.75
2023-11-23T08:15:51.206Z,90.94
2023-11-23T08:21:01.161Z,90.94
2023-11-23T08:26:12.397Z,91.20
2023-11-23T08:31:25.096Z,91.31
2023-11-23T08:36:34.934Z,91.43
2023-11-23T08:41:44.815Z,91.57
2023-11-23T08:46:54.766Z,91.44
2023-11-23T08:52:04.380Z,91.55
2023-11-23T08:57:14.539Z,91.46
2023-11-23T09:02:24.425Z,91.67
2023-11-23T09:07:34.388Z,91.64
2023-11-23T09:12:44.066Z,91.78
2023-11-23T09:17:53.884Z,91.89
2023-11-23T09:23:03.938Z,91.93
2023-11-23T09:28:13.586Z,92.28
2023-11-23T09:33:24.706Z,92.64
2023-11-23T09:38:36.696Z,92.73
2023-11-23T09:43:49.808Z,93.00
2023-11-23T09:49:01.055Z,93.08
2023-11-23T09:54:15.831Z,93.15
2023-11-23T09:59:26.322Z,93.21
2023-11-23T10:04:36.349Z,93.18
2023-11-23T10:09:47.981Z,92.92
2023-11-23T10:15:01.437Z,92.68
2023-11-23T10:20:16.803Z,92.64
2023-11-23T10:25:33.700Z,92.63
2023-11-23T10:30:44.328Z,92.56
2023-11-23T10:35:56.545Z,92.65
2023-11-23T10:41:07.799Z,92.83
2023-11-23T10:46:21.542Z,92.81
2023-11-23T10:51:36.062Z,92.64
2023-11-23T10:56:46.913Z,92.47
2023-11-23T11:02:00.962Z,92.51
2023-11-23T11:07:14.135Z,92.56
2023-11-23T11:12:24.034Z,92.51
2023-11-23T11:17:43.427Z,92.50
2023-11-23T11:23:01.978Z,92.43
2023-11-23T11:28:19.201Z,92.36
2023-11-23T11:33:31.574Z,92.36
2023-11-23T11:38:42.375Z,92.15
2023-11-23T11:43:53.585Z,91.97
2023-11-23T11:49:03.428Z,91.82
2023-11-23T11:54:13.579Z,91.76
2023-11-23T11:59:26.856Z,91.71
2023-11-23T12:04:40.887Z,91.60
2023-11-23T12:10:00.848Z,91.41
2023-11-23T12:15:16.620Z,91.22
2023-11-23T12:20:36.932Z,91.26
2023-11-23T12:25:49.665Z,91.07
2023-11-23T12:31:00.072Z,90.92
2023-11-23T12:36:13.881Z,90.71
2023-11-23T12:41:24.179Z,90.61
2023-11-23T12:46:35.701Z,90.43
2023-11-23T12:51:46.055Z,90.23
2023-11-23T12:56:57.003Z,90.09
2023-11-23T13:02:07.011Z,90.07
2023-11-23T13:07:17.253Z,90.04
2023-11-23T13:12:28.318Z,90.03
2023-11-23T13:17:38.659Z,89.95
2023-11-23T13:22:48.458Z,89.90
2023-11-23T13:27:59.663Z,89.79
2023-11-23T13:33:17.113Z,89.75
2023-11-23T13:38:27.141Z,89.58
2023-11-23T13:43:37.247Z,89.55
2023-11-23T13:48:47.610Z,89.54
2023-11-23T13:53:57.305Z,89.61
2023-11-23T13:59:08.222Z,89.37
2023-11-23T14:04:18.226Z,89.12
2023-11-23T14:09:32.262Z,89.00
2023-11-23T14:14:43.377Z,88.86
2023-11-23T14:19:54.004Z,88.69
2023-11-23T14:25:03.654Z,88.60
2023-11-23T14:30:18.620Z,88.67
2023-11-23T14:35:32.915Z,88.68
2023-11-23T14:40:42.708Z,88.74
2023-11-23T14:45:52.525Z,88.82
2023-11-23T14:51:02.363Z,89.31
2023-11-23T14:56:13.181Z,89.91
2023-11-23T15:01:24.289Z,90.17
2023-11-23T15:06:34.529Z,90.21
2023-11-23T15:11:45.722Z,90.49
2023-11-23T15:16:55.661Z,90.60
2023-11-23T15:22:07.576Z,90.61
2023-11-23T15:27:17.564Z,90.74
2023-11-23T15:32:28.960Z,90.89
2023-11-23T15:37:38.969Z,91.26
2023-11-23T15:42:50.088Z,91.68
2023-11-23T15:47:59.952Z,91.85
2023-11-23T15:53:10.567Z,91.88
2023-11-23T15:58:20.307Z,91.99
2023-11-23T16:03:30.548Z,91.84
2023-11-23T16:08:41.521Z,91.59
2023-11-23T16:13:51.955Z,91.72
2023-11-23T16:19:02.575Z,91.69
2023-11-23T16:24:15.461Z,91.50
2023-11-23T16:29:25.120Z,91.18
2023-11-23T16:34:35.396Z,91.07
2023-11-23T16:39:45.718Z,91.07
2023-11-23T16:44:55.705Z,91.11
2023-11-23T16:50:06.389Z,91.06
2023-11-23T16:55:16.576Z,91.14
2023-11-23T17:00:28.008Z,91.16
2023-11-23T17:05:37.875Z,91.14
2023-11-23T17:10:47.717Z,91.29
2023-11-23T17:15:57.653Z,91.26
2023-11-23T17:21:08.077Z,91.25
2023-11-23T17:26:20.692Z,91.35
2023-11-23T17:31:30.716Z,91.29
2023-11-23T17:36:40.778Z,91.23
2023-11-23T17:41:52.278Z,91.39
2023-11-23T17:47:01.955Z,91.40
2023-11-23T17:52:12.126Z,91.34
2023-11-23T17:57:22.049Z,91.46
2023-11-23T18:02:31.748Z,91.51
2023-11-23T18:07:43.050Z,91.54
2023-11-23T18:12:52.879Z,91.28
2023-11-23T18:18:07.763Z,90.98
2023-11-23T18:23:22.485Z,90.33
2023-11-23T18:28:32.401Z,89.99
2023-11-23T18:33:43.836Z,90.06
2023-11-23T18:38:54.033Z,90.19
2023-11-23T18:44:04.305Z,90.22
2023-11-23T18:49:14.629Z,90.25
2023-11-23T18:54:24.554Z,90.10
2023-11-23T18:59:34.475Z,89.76
2023-11-23T19:04:45.098Z,88.92
2023-11-23T19:09:54.745Z,87.93
2023-11-23T19:15:04.816Z,87.57
2023-11-23T19:20:17.094Z,87.44
2023-11-23T19:25:31.342Z,87.11
2023-11-23T19:30:44.441Z,86.52
2023-11-23T19:35:56.549Z,86.85
2023-11-23T19:41:11.720Z,86.86
2023-11-23T19:46:24.764Z,87.28
2023-11-23T19:51:37.820Z,87.73
2023-11-23T19:56:48.408Z,88.11
2023-11-23T20:02:01.208Z,88.28
2023-11-23T20:07:11.605Z,88.39
2023-11-23T20:12:21.483Z,88.44
2023-11-23T20:17:31.609Z,88.33
2023-11-23T20:22:41.376Z,88.18
2023-11-23T20:27:51.899Z,88.11
2023-11-23T20:33:01.579Z,88.25
2023-11-23T20:38:11.402Z,88.26
2023-11-23T20:43:25.387Z,88.06
2023-11-23T20:48:37.567Z,87.57
2023-11-23T20:53:47.256Z,87.03
2023-11-23T20:58:59.904Z,87.04
2023-11-23T21:04:13.924Z,86.81
2023-11-23T21:09:26.631Z,86.64
2023-11-23T21:14:36.488Z,86.69
2023-11-23T21:19:46.509Z,86.60
2023-11-23T21:24:56.331Z,86.36
2023-11-23T21:30:06.888Z,86.02
2023-11-23T21:35:17.202Z,85.54
2023-11-23T21:40:27.462Z,84.89
2023-11-23T21:45:38.624Z,83.47
2023-11-23T21:50:48.494Z,82.60
2023-11-23T21:55:58.523Z,81.29
2023-11-23T22:01:08.955Z,81.21
2023-11-23T22:06:19.004Z,81.46
2023-11-23T22:11:29.007Z,81.68
2023-11-23T22:16:42.631Z,82.08
2023-11-23T22:21:54.427Z,82.24
2023-11-23T22:27:05.365Z,82.31
2023-11-23T22:32:19.055Z,82.46
2023-11-23T22:37:31.620Z,81.72
2023-11-23T22:42:43.057Z,80.85
2023-11-23T22:47:52.767Z,83.40
2023-11-23T22:53:02.563Z,84.95
2023-11-23T22:58:12.360Z,85.41
2023-11-23T23:03:23.149Z,85.74
2023-11-23T23:08:32.969Z,85.57
2023-11-23T23:13:44.205Z,85.18
2023-11-23T23:18:54.398Z,84.49
2023-11-23T23:24:04.153Z,83.97
2023-11-23T23:29:14.992Z,83.61
2023-11-23T23:34:24.671Z,83.34
2023-11-23T23:39:34.739Z,82.34
2023-11-23T23:44:46.368Z,81.40
2023-11-23T23:49:56.583Z,81.21
2023-11-23T23:55:07.782Z,80.99
